createdAt,value
2018-11-22T00:08:24.352Z,92.04
2018-11-22T00:11:32.923Z,92.17
2018-11-22T00:14:01.873Z,92.15
2018-11-22T00:16:49.616Z,92.29
2018-11-22T00:19:18.264Z,92.07
2018-11-22T00:22:06.032Z,92.17
2018-11-22T00:24:34.916Z,91.78
2018-11-22T00:27:03.848Z,91.55
2018-11-22T00:33:01.847Z,91.71
2018-11-22T00:35:32.174Z,91.64
2018-11-22T00:38:00.829Z,91.61
2018-11-22T00:40:29.684Z,91.60
2018-11-22T00:43:17.538Z,91.66
2018-11-22T00:45:46.245Z,91.89
2018-11-22T00:48:14.943Z,91.94
2018-11-22T00:51:02.703Z,91.97
2018-11-22T00:53:50.481Z,91.73
2018-11-22T00:56:38.314Z,91.29
2018-11-22T00:59:26.339Z,90.37
2018-11-22T01:05:03.128Z,91.28
2018-11-22T01:10:41.961Z,91.89
2018-11-22T01:13:30.722Z,91.75
2018-11-22T01:15:59.563Z,91.59
2018-11-22T01:18:28.920Z,91.66
2018-11-22T01:20:58.262Z,91.96
2018-11-22T01:23:46.076Z,92.16
2018-11-22T01:26:14.728Z,91.92
2018-11-22T01:28:43.489Z,91.77
2018-11-22T01:31:12.309Z,91.73
2018-11-22T01:34:00.168Z,92.00
2018-11-22T01:36:28.814Z,91.97
2018-11-22T01:39:16.585Z,91.78
2018-11-22T01:44:19.694Z,92.22
2018-11-22T01:46:48.331Z,92.24
2018-11-22T01:49:17.007Z,92.22
2018-11-22T01:51:45.646Z,92.49
2018-11-22T01:54:14.340Z,92.52
2018-11-22T01:56:44.653Z,92.89
2018-11-22T01:59:33.237Z,92.80
2018-11-22T02:04:51.283Z,93.16
2018-11-22T02:07:39.019Z,93.10
2018-11-22T02:10:09.656Z,93.21
2018-11-22T02:12:57.336Z,93.31
2018-11-22T02:15:27.897Z,93.36
2018-11-22T02:18:15.663Z,92.97
2018-11-22T02:23:19.586Z,93.13
2018-11-22T02:26:07.465Z,93.01
2018-11-22T02:28:55.256Z,92.41
2018-11-22T02:31:24.090Z,92.34
2018-11-22T02:34:11.815Z,92.23
2018-11-22T02:36:40.433Z,92.02
2018-11-22T02:39:10.695Z,91.79
2018-11-22T02:41:39.400Z,91.79
2018-11-22T02:44:09.019Z,92.52
2018-11-22T02:46:37.616Z,92.54
2018-11-22T02:49:25.435Z,92.53
2018-11-22T02:51:54.027Z,92.46
2018-11-22T02:54:41.742Z,92.33
2018-11-22T02:57:29.450Z,92.41
2018-11-22T02:59:58.080Z,92.29
2018-11-22T03:02:26.921Z,92.18
2018-11-22T03:04:58.355Z,92.52
2018-11-22T03:07:28.986Z,92.59
2018-11-22T03:09:57.632Z,92.66
2018-11-22T03:12:26.218Z,92.34
2018-11-22T03:14:54.819Z,92.25
2018-11-22T03:17:23.458Z,91.94
2018-11-22T03:19:52.040Z,91.71
2018-11-22T03:22:22.095Z,91.77
2018-11-22T03:24:53.219Z,91.79
2018-11-22T03:27:22.452Z,91.95
2018-11-22T03:29:51.093Z,92.26
2018-11-22T03:32:19.688Z,91.90
2018-11-22T03:34:48.315Z,91.73
2018-11-22T03:37:17.999Z,91.60
2018-11-22T03:39:48.952Z,91.44
2018-11-22T03:42:18.564Z,91.69
2018-11-22T03:44:47.193Z,91.41
2018-11-22T03:47:15.905Z,91.18
2018-11-22T03:50:04.871Z,91.44
2018-11-22T03:52:54.041Z,91.46
2018-11-22T03:55:41.805Z,91.46
2018-11-22T03:58:10.671Z,91.24
2018-11-22T04:00:58.574Z,91.56
2018-11-22T04:03:27.216Z,91.96
2018-11-22T04:06:14.884Z,91.78
2018-11-22T04:09:03.915Z,91.76
2018-11-22T04:11:35.648Z,91.60
2018-11-22T04:14:23.459Z,91.57
2018-11-22T04:16:52.159Z,91.48
2018-11-22T04:19:20.791Z,91.46
2018-11-22T04:21:49.386Z,91.61
2018-11-22T04:24:18.034Z,91.66
2018-11-22T04:27:05.770Z,91.24
2018-11-22T04:29:34.422Z,91.48
2018-11-22T04:32:22.135Z,91.71
2018-11-22T04:35:09.924Z,91.73
2018-11-22T04:37:39.349Z,91.90
2018-11-22T04:43:03.840Z,92.63
2018-11-22T04:45:32.644Z,93.03
2018-11-22T04:48:20.404Z,92.89
2018-11-22T04:50:49.048Z,92.51
2018-11-22T04:53:36.775Z,92.27
2018-11-22T04:56:05.614Z,92.11
2018-11-22T04:58:53.719Z,91.78
2018-11-22T05:01:25.404Z,91.79
2018-11-22T05:04:34.321Z,91.96
2018-11-22T05:07:21.754Z,91.93
2018-11-22T05:09:50.417Z,92.05
2018-11-22T05:12:19.346Z,92.36
2018-11-22T05:15:07.128Z,92.30
2018-11-22T05:17:54.890Z,92.04
2018-11-22T05:20:24.180Z,91.97
2018-11-22T05:22:53.885Z,91.80
2018-11-22T05:25:41.776Z,92.02
2018-11-22T05:31:19.852Z,91.66
2018-11-22T05:34:09.390Z,91.66
2018-11-22T05:36:38.804Z,91.14
2018-11-22T05:39:08.846Z,91.41
2018-11-22T05:41:37.514Z,91.67
2018-11-22T05:44:07.538Z,92.02
2018-11-22T05:52:19.770Z,91.93
2018-11-22T05:55:08.047Z,92.24
2018-11-22T05:57:57.158Z,92.02
2018-11-22T06:00:27.929Z,92.19
2018-11-22T06:03:00.460Z,92.15
2018-11-22T06:05:48.998Z,92.50
2018-11-22T06:08:21.696Z,92.70
2018-11-22T06:10:49.982Z,92.61
2018-11-22T06:13:18.793Z,92.53
2018-11-22T06:15:47.637Z,92.42
2018-11-22T06:18:16.294Z,91.95
2018-11-22T06:21:04.129Z,91.58
2018-11-22T06:23:52.043Z,91.57
2018-11-22T06:26:39.784Z,91.25
2018-11-22T06:29:08.475Z,91.26
2018-11-22T06:31:56.311Z,91.31
2018-11-22T06:34:26.553Z,91.30
2018-11-22T06:37:14.311Z,91.10
2018-11-22T06:39:43.073Z,90.95
2018-11-22T06:42:30.893Z,90.73
2018-11-22T06:45:00.656Z,90.90
2018-11-22T06:53:32.930Z,90.75
2018-11-22T06:56:20.704Z,90.59
2018-11-22T06:58:49.339Z,90.85
2018-11-22T07:01:18.104Z,90.92
2018-11-22T07:03:47.063Z,90.98
2018-11-22T07:09:10.172Z,91.87
2018-11-22T07:11:39.664Z,92.27
2018-11-22T07:14:08.867Z,92.35
2018-11-22T07:16:37.698Z,92.44
2018-11-22T07:19:25.676Z,92.20
2018-11-22T07:21:54.329Z,92.20
2018-11-22T07:24:22.974Z,92.39
2018-11-22T07:26:54.335Z,92.07
2018-11-22T07:29:43.406Z,92.14
2018-11-22T07:32:12.007Z,91.93
2018-11-22T07:34:40.645Z,92.17
2018-11-22T07:37:09.420Z,92.70
2018-11-22T07:39:38.257Z,92.40
2018-11-22T07:42:26.074Z,91.74
2018-11-22T07:44:55.208Z,91.71
2018-11-22T07:47:25.688Z,90.66
2018-11-22T07:50:15.272Z,89.99
2018-11-22T07:55:51.795Z,89.99
2018-11-22T07:58:20.463Z,90.05
2018-11-22T08:00:49.068Z,89.46
2018-11-22T08:03:17.677Z,89.11
2018-11-22T08:05:46.323Z,88.81
2018-11-22T08:08:15.007Z,89.41
2018-11-22T08:10:43.616Z,89.15
2018-11-22T08:13:12.613Z,88.98
2018-11-22T08:15:44.083Z,88.92
2018-11-22T08:18:12.797Z,88.83
2018-11-22T08:20:41.456Z,89.71
2018-11-22T08:23:10.561Z,89.43
2018-11-22T08:25:39.485Z,88.69
2018-11-22T08:28:27.249Z,88.73
2018-11-22T08:30:55.884Z,89.38
2018-11-22T08:33:25.031Z,89.41
2018-11-22T08:36:14.728Z,89.38
2018-11-22T08:39:04.588Z,88.92
2018-11-22T08:41:53.279Z,88.71
2018-11-22T08:44:22.151Z,89.29
2018-11-22T08:47:12.256Z,89.72
2018-11-22T08:49:57.705Z,89.47
2018-11-22T08:52:26.451Z,89.29
2018-11-22T08:54:55.293Z,88.78
2018-11-22T08:57:24.123Z,87.15
2018-11-22T08:59:53.081Z,86.58
2018-11-22T09:02:45.353Z,85.77
2018-11-22T09:05:12.503Z,83.89
2018-11-22T09:08:01.162Z,83.22
2018-11-22T09:10:30.256Z,83.36
2018-11-22T09:13:18.030Z,83.37
2018-11-22T09:15:46.680Z,83.89
2018-11-22T09:18:34.488Z,83.52
2018-11-22T09:21:22.283Z,83.89
2018-11-22T09:24:10.055Z,83.22
2018-11-22T09:26:38.858Z,82.76
2018-11-22T09:29:26.685Z,82.07
2018-11-22T09:32:14.363Z,80.18
2018-11-22T09:35:02.913Z,79.76
2018-11-22T09:37:51.297Z,78.43
2018-11-22T09:40:22.524Z,77.69
2018-11-22T09:42:51.353Z,76.55
2018-11-22T09:45:40.418Z,74.96
2018-11-22T09:48:09.067Z,73.16
2018-11-22T09:50:37.734Z,72.18
2018-11-22T09:53:07.780Z,72.45
2018-11-22T09:55:37.124Z,72.37
2018-11-22T09:58:07.954Z,71.94
2018-11-22T10:00:36.570Z,71.76
2018-11-22T10:03:05.462Z,72.18
2018-11-22T10:05:53.262Z,71.29
2018-11-22T10:08:21.763Z,72.13
2018-11-22T10:10:51.799Z,70.14
2018-11-22T10:13:21.256Z,68.04
2018-11-22T10:15:49.865Z,69.29
2018-11-22T10:18:18.728Z,68.78
2018-11-22T10:21:06.502Z,67.61
2018-11-22T10:23:35.187Z,67.37
2018-11-22T10:26:03.746Z,65.95
2018-11-22T10:28:32.620Z,64.59
2018-11-22T10:31:01.477Z,63.70
2018-11-22T10:33:49.237Z,64.56
2018-11-22T10:36:17.833Z,64.73
2018-11-22T10:38:46.495Z,64.35
2018-11-22T10:41:34.288Z,63.98
2018-11-22T10:44:02.940Z,61.66
2018-11-22T10:46:31.635Z,60.08
2018-11-22T10:49:00.366Z,60.68
2018-11-22T10:51:29.056Z,61.22
2018-11-22T10:53:57.665Z,60.71
2018-11-22T10:56:45.499Z,58.75
2018-11-22T10:59:14.111Z,59.18
2018-11-22T11:02:03.126Z,58.87
2018-11-22T11:04:52.000Z,58.00
2018-11-22T11:07:40.254Z,57.18
2018-11-22T11:10:27.972Z,58.58
2018-11-22T11:13:15.770Z,60.07
2018-11-22T11:16:03.458Z,58.84
2018-11-22T11:18:32.061Z,57.24
2018-11-22T11:21:00.656Z,55.30
2018-11-22T11:23:30.638Z,55.19
2018-11-22T11:26:00.758Z,55.59
2018-11-22T11:28:29.410Z,55.64
2018-11-22T11:30:58.013Z,57.15
2018-11-22T11:33:26.665Z,56.85
2018-11-22T11:35:55.267Z,56.48
2018-11-22T11:38:24.205Z,58.20
2018-11-22T11:41:11.875Z,56.27
2018-11-22T11:43:59.646Z,54.46
2018-11-22T11:46:28.345Z,55.75
2018-11-22T11:49:16.163Z,55.47
2018-11-22T11:51:44.816Z,55.07
2018-11-22T11:54:33.965Z,55.03
2018-11-22T11:57:04.931Z,55.59
2018-11-22T11:59:52.990Z,54.73
2018-11-22T12:02:40.784Z,53.55
2018-11-22T12:05:09.740Z,52.62
2018-11-22T12:07:57.512Z,53.89
2018-11-22T12:10:45.769Z,52.37
2018-11-22T12:13:14.743Z,53.32
2018-11-22T12:15:43.425Z,54.22
2018-11-22T12:18:36.595Z,56.88
2018-11-22T12:20:59.884Z,57.85
2018-11-22T12:23:28.486Z,56.22
2018-11-22T12:25:57.181Z,56.57
2018-11-22T12:28:44.993Z,56.15
2018-11-22T12:31:33.866Z,56.99
2018-11-22T12:34:41.627Z,57.01
2018-11-22T12:37:49.170Z,56.55
2018-11-22T12:43:47.022Z,55.93
2018-11-22T12:46:15.679Z,55.71
2018-11-22T12:48:45.430Z,55.37
2018-11-22T12:51:16.072Z,54.43
2018-11-22T12:54:04.269Z,54.35
2018-11-22T12:56:52.213Z,53.03
2018-11-22T12:59:40.654Z,52.75
2018-11-22T13:07:52.138Z,49.39
2018-11-22T13:12:56.125Z,52.77
2018-11-22T13:15:24.764Z,52.20
2018-11-22T13:17:53.385Z,52.46
2018-11-22T13:20:23.302Z,50.69
2018-11-22T13:23:12.230Z,50.74
2018-11-22T13:25:59.995Z,51.49
2018-11-22T13:28:28.637Z,51.76
2018-11-22T13:30:57.660Z,51.72
2018-11-22T13:33:45.400Z,51.29
2018-11-22T13:36:14.161Z,52.04
2018-11-22T13:38:43.002Z,52.82
2018-11-22T13:41:30.765Z,51.99
2018-11-22T13:43:59.372Z,52.42
2018-11-22T13:46:47.175Z,52.70
2018-11-22T13:49:15.789Z,52.63
2018-11-22T13:51:44.796Z,52.33
2018-11-22T13:54:13.307Z,52.74
2018-11-22T13:57:00.969Z,52.83
2018-11-22T13:59:49.287Z,52.75
2018-11-22T14:02:17.920Z,52.93
2018-11-22T14:04:46.574Z,53.21
2018-11-22T14:07:15.484Z,53.78
2018-11-22T14:10:03.262Z,54.01
2018-11-22T14:12:31.907Z,53.92
2018-11-22T14:15:00.514Z,54.30
2018-11-22T14:17:48.315Z,54.64
2018-11-22T14:20:18.755Z,54.97
2018-11-22T14:23:06.693Z,54.63
2018-11-22T14:28:43.329Z,54.63
2018-11-22T14:31:32.406Z,53.83
2018-11-22T14:34:22.378Z,54.15
2018-11-22T14:36:50.970Z,53.71
2018-11-22T14:39:38.752Z,53.08
2018-11-22T14:42:07.379Z,52.93
2018-11-22T14:44:55.154Z,52.90
2018-11-22T14:47:25.640Z,54.66
2018-11-22T14:49:55.075Z,54.42
2018-11-22T14:52:23.682Z,55.33
2018-11-22T14:54:52.365Z,57.50
2018-11-22T14:57:40.186Z,58.55
2018-11-22T15:00:12.871Z,59.07
2018-11-22T15:03:01.652Z,60.61
2018-11-22T15:05:50.128Z,61.98
2018-11-22T15:08:18.875Z,64.04
2018-11-22T15:11:06.695Z,65.24
2018-11-22T15:13:54.799Z,67.51
2018-11-22T15:16:42.636Z,68.26
2018-11-22T15:19:12.873Z,69.42
2018-11-22T15:21:42.009Z,70.68
2018-11-22T15:24:10.853Z,70.91
2018-11-22T15:26:58.605Z,71.48
2018-11-22T15:29:27.200Z,72.09
2018-11-22T15:31:56.046Z,73.04
2018-11-22T15:34:43.907Z,74.13
2018-11-22T15:37:32.862Z,75.41
2018-11-22T15:40:02.221Z,75.98
2018-11-22T15:42:30.869Z,76.54
2018-11-22T15:45:18.696Z,77.29
2018-11-22T15:47:47.478Z,78.03
2018-11-22T15:50:36.301Z,79.02
2018-11-22T15:53:24.366Z,79.35
2018-11-22T15:55:53.196Z,79.82
2018-11-22T15:58:24.323Z,80.43
2018-11-22T16:00:52.836Z,79.86
2018-11-22T16:03:40.590Z,80.50
2018-11-22T16:06:09.527Z,81.23
2018-11-22T16:08:39.691Z,81.90
2018-11-22T16:11:14.745Z,82.47
2018-11-22T16:13:37.696Z,82.83
2018-11-22T16:16:26.748Z,82.81
2018-11-22T16:18:57.127Z,83.57
2018-11-22T16:21:26.136Z,83.70
2018-11-22T16:23:54.731Z,84.22
2018-11-22T16:26:23.340Z,84.36
2018-11-22T16:28:54.280Z,84.58
2018-11-22T16:31:22.933Z,85.17
2018-11-22T16:34:10.696Z,85.64
2018-11-22T16:36:39.338Z,86.20
2018-11-22T16:39:09.471Z,86.93
2018-11-22T16:41:39.038Z,86.92
2018-11-22T16:44:27.588Z,87.17
2018-11-22T16:46:56.243Z,87.45
2018-11-22T16:49:43.972Z,87.34
2018-11-22T16:52:12.655Z,87.29
2018-11-22T16:55:00.630Z,87.41
2018-11-22T16:57:48.350Z,87.67
2018-11-22T17:00:40.052Z,87.82
2018-11-22T17:03:10.592Z,88.10
2018-11-22T17:05:58.363Z,88.25
2018-11-22T17:08:26.960Z,88.56
2018-11-22T17:10:55.680Z,88.74
2018-11-22T17:13:24.290Z,88.81
2018-11-22T17:15:54.837Z,89.13
2018-11-22T17:18:24.058Z,89.44
2018-11-22T17:21:11.878Z,90.04
2018-11-22T17:23:40.801Z,89.50
2018-11-22T17:26:29.611Z,88.76
2018-11-22T17:28:59.141Z,89.00
2018-11-22T17:31:47.328Z,89.81
2018-11-22T17:34:35.705Z,89.58
2018-11-22T17:37:23.466Z,89.65
2018-11-22T17:40:11.250Z,89.90
2018-11-22T17:42:39.996Z,89.84
2018-11-22T17:45:30.085Z,89.88
2018-11-22T17:47:58.941Z,89.29
2018-11-22T17:50:29.200Z,89.84
2018-11-22T17:53:17.007Z,90.25
2018-11-22T17:55:45.685Z,90.22
2018-11-22T17:58:15.011Z,90.19
2018-11-22T18:01:02.795Z,89.81
2018-11-22T18:03:50.745Z,90.25
2018-11-22T18:09:32.951Z,91.47
2018-11-22T18:12:21.331Z,91.41
2018-11-22T18:14:50.298Z,91.11
2018-11-22T18:17:38.879Z,91.46
2018-11-22T18:20:13.076Z,91.86
2018-11-22T18:23:00.834Z,91.79
2018-11-22T18:28:44.481Z,90.59
2018-11-22T18:31:32.937Z,90.71
2018-11-22T18:34:20.741Z,91.19
2018-11-22T18:36:49.586Z,91.69
2018-11-22T18:39:18.375Z,92.25
2018-11-22T18:44:40.779Z,92.63
2018-11-22T18:47:28.594Z,92.79
2018-11-22T18:50:16.426Z,92.51
2018-11-22T18:53:04.273Z,93.04
2018-11-22T18:55:33.033Z,92.95
2018-11-22T18:58:20.994Z,93.08
2018-11-22T19:01:08.887Z,92.76
2018-11-22T19:03:56.664Z,92.18
2018-11-22T19:06:44.604Z,92.37
2018-11-22T19:09:14.175Z,92.48
2018-11-22T19:11:43.095Z,92.45
2018-11-22T19:14:11.906Z,92.50
2018-11-22T19:16:59.671Z,92.88
2018-11-22T19:19:47.457Z,93.27
2018-11-22T19:22:35.307Z,93.59
2018-11-22T19:25:04.169Z,93.84
2018-11-22T19:27:52.580Z,93.47
2018-11-22T19:30:45.047Z,93.27
2018-11-22T19:33:32.897Z,93.66
2018-11-22T19:36:01.844Z,94.00
2018-11-22T19:38:49.579Z,94.10
2018-11-22T19:46:33.106Z,94.49
2018-11-22T19:49:20.825Z,94.53
2018-11-22T19:52:08.614Z,94.50
2018-11-22T19:54:37.527Z,94.65
2018-11-22T19:57:25.476Z,94.66
2018-11-22T19:59:54.354Z,94.54
2018-11-22T20:02:24.659Z,94.53
2018-11-22T20:04:53.391Z,94.53
2018-11-22T20:07:41.212Z,94.53
2018-11-22T20:10:33.099Z,94.52
2018-11-22T20:13:21.019Z,94.47
2018-11-22T20:18:24.127Z,93.83
2018-11-22T20:21:11.802Z,93.97
2018-11-22T20:23:40.689Z,94.31
2018-11-22T20:26:28.632Z,94.65
2018-11-22T20:28:57.461Z,94.69
2018-11-22T20:31:45.487Z,94.88
2018-11-22T20:34:14.366Z,95.09
2018-11-22T20:36:43.796Z,95.29
2018-11-22T20:39:31.615Z,95.24
2018-11-22T20:42:19.385Z,95.27
2018-11-22T20:44:48.469Z,95.29
2018-11-22T20:47:18.338Z,95.36
2018-11-22T20:49:48.275Z,94.83
2018-11-22T20:52:17.936Z,94.97
2018-11-22T20:55:05.699Z,95.16
2018-11-22T20:57:42.032Z,95.37
2018-11-22T21:00:12.996Z,95.39
2018-11-22T21:05:30.573Z,95.33
2018-11-22T21:08:18.535Z,95.20
2018-11-22T21:11:06.674Z,94.92
2018-11-22T21:13:54.715Z,94.95
2018-11-22T21:16:23.795Z,95.19
2018-11-22T21:18:52.675Z,95.42
2018-11-22T21:21:40.474Z,95.50
2018-11-22T21:24:09.930Z,95.07
2018-11-22T21:26:58.799Z,95.00
2018-11-22T21:29:46.531Z,94.74
2018-11-22T21:32:15.402Z,95.04
2018-11-22T21:34:44.230Z,95.29
2018-11-22T21:37:32.888Z,95.55
2018-11-22T21:40:20.662Z,95.96
2018-11-22T21:42:50.623Z,96.03
2018-11-22T21:45:38.401Z,95.77
2018-11-22T21:48:26.281Z,95.60
2018-11-22T21:50:55.145Z,96.06
2018-11-22T21:53:43.601Z,96.40
2018-11-22T21:56:12.462Z,96.49
2018-11-22T21:59:00.264Z,96.48
2018-11-22T22:01:47.912Z,96.65
2018-11-22T22:04:35.702Z,96.72
2018-11-22T22:09:58.730Z,96.55
2018-11-22T22:12:47.152Z,96.75
2018-11-22T22:15:36.035Z,97.01
2018-11-22T22:18:23.859Z,97.16
2018-11-22T22:21:11.649Z,97.42
2018-11-22T22:23:59.635Z,97.57
2018-11-22T22:26:47.352Z,97.80
2018-11-22T22:29:35.199Z,98.11
2018-11-22T22:32:04.075Z,97.90
2018-11-22T22:34:51.931Z,97.56
2018-11-22T22:37:39.757Z,97.41
2018-11-22T22:40:11.267Z,97.17
2018-11-22T22:42:40.739Z,96.69
2018-11-22T22:45:10.023Z,96.72
2018-11-22T22:47:39.134Z,97.07
2018-11-22T22:50:28.656Z,97.52
2018-11-22T22:52:58.685Z,97.74
2018-11-22T22:55:46.555Z,97.91
2018-11-22T22:58:15.470Z,97.95
2018-11-22T23:01:05.580Z,97.90
2018-11-22T23:03:53.791Z,97.72
2018-11-22T23:06:41.755Z,97.71
2018-11-22T23:09:13.476Z,97.72
2018-11-22T23:12:02.895Z,97.76
2018-11-22T23:14:52.093Z,97.78
2018-11-22T23:17:40.780Z,97.53
2018-11-22T23:20:12.021Z,97.42
2018-11-22T23:22:41.117Z,97.27
2018-11-22T23:25:10.912Z,97.08
2018-11-22T23:33:44.793Z,97.08
2018-11-22T23:36:13.643Z,97.19
2018-11-22T23:39:02.100Z,96.77
2018-11-22T23:41:31.332Z,96.76
2018-11-22T23:44:00.139Z,97.19
2018-11-22T23:46:29.083Z,97.39
2018-11-22T23:48:57.974Z,97.58
2018-11-22T23:51:27.004Z,97.68
2018-11-22T23:54:15.882Z,98.13
2018-11-22T23:56:45.557Z,98.21
2018-11-22T23:59:33.348Z,98.10
